Time;durP1;ratioP1;P1;durP2;ratioP2;P2;SDS_P1;SDS_P2;PMS_P1;PMS_P2;Temp;Humidity;BMP_temperature;BMP_pressure;BME280_temperature;BME280_humidity;BME280_pressure;Samples;Min_cycle;Max_cycle;Signal;HPM_P1;HPM_P2
2022/10/30 00:02:10;;;;;;;19.17;6.63;;;;;;;15.30;100.00;101503.28;5050440;28;20029;-72
2022/10/30 00:04:35;;;;;;;19.38;7.32;;;;;;;15.28;100.00;101506.25;5053124;28;20025;-72
2022/10/30 00:07:00;;;;;;;16.30;6.47;;;;;;;15.29;100.00;101510.59;5053612;28;20392;-72
2022/10/30 00:09:26;;;;;;;20.90;7.60;;;;;;;15.24;100.00;101510.50;5052192;28;20107;-72
2022/10/30 00:11:51;;;;;;;15.82;7.10;;;;;;;15.21;100.00;101505.53;5058009;28;20475;-72
2022/10/30 00:14:17;;;;;;;17.23;7.30;;;;;;;15.21;100.00;101511.00;5052723;28;20027;-72
2022/10/30 00:16:42;;;;;;;20.98;7.43;;;;;;;15.16;100.00;101497.25;5052880;28;20074;-73
2022/10/30 00:19:07;;;;;;;19.00;7.40;;;;;;;15.20;100.00;101506.59;5052858;28;20032;-72
2022/10/30 00:21:33;;;;;;;18.10;6.97;;;;;;;15.17;100.00;101507.06;5052540;28;20392;-72
2022/10/30 00:23:58;;;;;;;24.83;7.05;;;;;;;15.19;100.00;101508.50;5052878;28;20107;-72
2022/10/30 00:26:24;;;;;;;19.48;6.40;;;;;;;15.12;100.00;101504.25;5052283;28;20033;-71
2022/10/30 00:28:51;;;;;;;22.45;7.10;;;;;;;15.10;100.00;101498.19;5052103;28;20060;-72
2022/10/30 00:31:16;;;;;;;21.20;7.40;;;;;;;15.15;100.00;101503.78;5072403;28;20036;-72
2022/10/30 00:33:41;;;;;;;17.25;6.60;;;;;;;15.05;100.00;101502.47;5071922;28;20031;-72
2022/10/30 00:36:07;;;;;;;16.75;7.03;;;;;;;15.04;100.00;101494.53;5071345;28;20052;-72
2022/10/30 00:38:32;;;;;;;17.90;6.93;;;;;;;15.01;100.00;101495.84;5072428;28;20021;-72
2022/10/30 00:40:57;;;;;;;22.05;6.53;;;;;;;14.94;100.00;101489.69;5072663;28;20054;-72
2022/10/30 00:43:27;;;;;;;20.05;6.93;;;;;;;14.99;100.00;101489.81;5072085;28;20033;-72
2022/10/30 00:45:52;;;;;;;15.40;7.60;;;;;;;14.97;100.00;101494.66;5051791;28;20033;-72
2022/10/30 00:48:21;;;;;;;15.02;6.97;;;;;;;14.91;100.00;101492.06;5051984;28;20480;-72
2022/10/30 00:50:46;;;;;;;19.48;7.63;;;;;;;14.94;100.00;101495.13;5053448;28;20108;-72
2022/10/30 00:53:16;;;;;;;16.58;6.95;;;;;;;14.88;100.00;101491.47;5052214;28;20110;-72
2022/10/30 00:55:50;;;;;;;12.98;6.50;;;;;;;14.91;100.00;101490.16;5052436;28;20108;-72
2022/10/30 00:58:21;;;;;;;19.42;6.90;;;;;;;14.89;100.00;101486.84;5051855;28;20104;-72
2022/10/30 01:00:50;;;;;;;16.55;6.70;;;;;;;14.86;100.00;101487.34;5050035;28;20339;-72
2022/10/30 01:03:17;;;;;;;15.55;7.00;;;;;;;14.84;100.00;101486.72;5052186;28;20098;-72
2022/10/30 01:05:47;;;;;;;16.33;6.50;;;;;;;14.79;100.00;101489.34;5051048;28;20020;-72
2022/10/30 01:08:12;;;;;;;13.43;6.82;;;;;;;14.78;100.00;101485.81;5051690;28;20118;-72
2022/10/30 01:10:38;;;;;;;12.95;6.53;;;;;;;14.77;100.00;101488.75;5052287;28;20090;-72
2022/10/30 01:13:04;;;;;;;14.82;7.20;;;;;;;14.73;100.00;101490.28;5050416;28;20158;-72
2022/10/30 01:15:39;;;;;;;15.70;6.90;;;;;;;14.70;100.00;101488.88;5050121;28;20560;-72
2022/10/30 01:18:10;;;;;;;15.80;7.07;;;;;;;14.65;100.00;101496.94;5052209;28;20021;-72
2022/10/30 01:20:46;;;;;;;16.77;6.80;;;;;;;14.62;100.00;101498.22;5052260;28;20441;-72
2022/10/30 01:23:27;;;;;;;16.83;6.60;;;;;;;14.58;100.00;101499.72;5052255;28;20064;-72
2022/10/30 01:26:16;;;;;;;20.15;7.25;;;;;;;14.49;100.00;101498.41;5052169;28;20028;-72
2022/10/30 01:28:56;;;;;;;17.58;6.82;;;;;;;14.53;100.00;101500.44;5051882;28;20025;-72
2022/10/30 01:31:36;;;;;;;23.05;7.18;;;;;;;14.51;100.00;101496.31;5065559;28;20075;-72
2022/10/30 01:34:24;;;;;;;22.52;7.40;;;;;;;14.48;100.00;101500.31;5052131;28;20063;-71
2022/10/30 01:36:49;;;;;;;16.98;7.10;;;;;;;14.48;100.00;101499.50;5050776;28;20021;-72
2022/10/30 01:39:27;;;;;;;19.85;7.55;;;;;;;14.48;100.00;101500.31;5051811;28;20037;-72
2022/10/30 01:41:55;;;;;;;16.80;7.03;;;;;;;14.48;100.00;101510.41;5052008;28;20072;-72
2022/10/30 01:44:30;;;;;;;17.98;7.22;;;;;;;14.46;100.00;101498.88;5052547;28;20376;-72
2022/10/30 01:47:31;;;;;;;18.70;7.30;;;;;;;14.44;100.00;101504.56;5055805;28;20029;-72
2022/10/30 01:50:23;;;;;;;22.15;7.28;;;;;;;14.44;100.00;101506.47;5055422;28;20090;-72
2022/10/30 01:52:56;;;;;;;17.05;7.35;;;;;;;14.39;100.00;101511.78;5055408;28;20029;-72
2022/10/30 01:55:49;;;;;;;13.40;7.15;;;;;;;14.39;100.00;101514.50;5055293;28;20029;-72
2022/10/30 01:58:23;;;;;;;15.70;7.32;;;;;;;14.30;100.00;101503.97;5070925;28;20360;-72
2022/10/30 02:00:53;;;;;;;17.98;7.50;;;;;;;14.25;100.00;101511.16;5052329;28;20025;-72
2022/10/30 02:03:19;;;;;;;21.55;6.75;;;;;;;14.26;100.00;101512.84;5055392;28;20053;-72
2022/10/30 02:05:50;;;;;;;12.85;6.43;;;;;;;14.21;100.00;101513.53;5055410;28;20118;-72
2022/10/30 02:08:16;;;;;;;16.10;6.55;;;;;;;14.17;100.00;101520.50;5053773;28;20021;-72
2022/10/30 02:10:45;;;;;;;16.05;7.32;;;;;;;14.17;100.00;101517.78;5053995;28;20116;-72
2022/10/30 02:13:10;;;;;;;18.67;6.78;;;;;;;14.13;100.00;101516.56;5054816;28;20031;-72
2022/10/30 02:15:36;;;;;;;15.40;7.50;;;;;;;14.12;100.00;101514.94;5053629;28;20024;-72
2022/10/30 02:18:02;;;;;;;15.73;7.57;;;;;;;14.11;100.00;101507.81;5052640;28;20460;-72
2022/10/30 02:20:27;;;;;;;15.32;7.03;;;;;;;14.11;100.00;101514.09;5073326;28;20028;-72
2022/10/30 02:22:53;;;;;;;16.98;7.20;;;;;;;14.12;100.00;101512.22;5074691;28;20109;-72
2022/10/30 02:25:18;;;;;;;14.25;7.38;;;;;;;14.10;100.00;101519.75;5074834;28;20028;-72
2022/10/30 02:27:43;;;;;;;14.60;7.38;;;;;;;14.06;100.00;101524.03;5074928;28;20052;-72
2022/10/30 02:30:10;;;;;;;18.33;7.07;;;;;;;14.07;100.00;101522.94;5073702;28;20348;-72
2022/10/30 02:32:35;;;;;;;12.27;7.07;;;;;;;14.06;100.00;101521.31;5055370;28;20525;-72
2022/10/30 02:35:01;;;;;;;18.30;8.15;;;;;;;14.05;100.00;101515.00;5054710;28;20033;-72
2022/10/30 02:37:26;;;;;;;19.35;7.82;;;;;;;14.08;100.00;101530.06;5061551;28;20051;-72
2022/10/30 02:39:51;;;;;;;17.15;6.80;;;;;;;14.10;100.00;101531.50;5073436;28;20025;-72
2022/10/30 02:42:17;;;;;;;20.67;7.75;;;;;;;14.01;100.00;101532.88;5074423;28;20029;-72
2022/10/30 02:44:42;;;;;;;16.80;7.72;;;;;;;14.01;100.00;101530.16;5074442;28;20025;-72
2022/10/30 02:47:07;;;;;;;21.13;7.80;;;;;;;14.02;100.00;101533.72;5070349;28;20086;-72
2022/10/30 02:49:33;;;;;;;15.40;7.25;;;;;;;13.98;100.00;101528.72;5074251;28;20021;-72
2022/10/30 02:51:58;;;;;;;15.70;7.65;;;;;;;14.05;100.00;101533.25;5074609;28;20024;-72
2022/10/30 02:54:24;;;;;;;14.40;7.47;;;;;;;14.04;100.00;101532.44;5073974;28;20020;-72
2022/10/30 02:56:50;;;;;;;19.15;7.50;;;;;;;14.05;100.00;101525.91;5073686;28;20025;-72
2022/10/30 02:59:15;;;;;;;17.05;7.20;;;;;;;14.00;100.00;101523.06;5070186;28;20031;-72
2022/10/30 03:01:40;;;;;;;20.85;7.10;;;;;;;14.04;100.00;101526.13;5051748;28;20024;-72
2022/10/30 03:04:05;;;;;;;22.02;7.28;;;;;;;14.00;100.00;101523.06;5053064;28;20081;-72
2022/10/30 03:06:31;;;;;;;17.67;7.65;;;;;;;14.00;100.00;101523.88;5053760;28;20029;-72
2022/10/30 03:08:57;;;;;;;18.73;7.28;;;;;;;14.00;100.00;101526.59;5054076;28;20039;-72
2022/10/30 03:11:22;;;;;;;18.65;7.40;;;;;;;13.99;100.00;101514.06;5052656;28;20028;-72
2022/10/30 03:13:48;;;;;;;18.15;7.97;;;;;;;14.00;100.00;101513.00;5053598;28;20356;-72
2022/10/30 03:16:19;;;;;;;20.48;7.95;;;;;;;13.97;100.00;101520.81;5053855;28;20036;-72
2022/10/30 03:18:44;;;;;;;19.70;7.77;;;;;;;13.95;100.00;101522.91;5053803;28;20035;-72
2022/10/30 03:21:13;;;;;;;18.50;7.47;;;;;;;13.95;100.00;101512.88;5052403;28;20303;-72
2022/10/30 03:23:38;;;;;;;17.98;7.53;;;;;;;13.90;100.00;101510.00;5052346;28;20029;-72
2022/10/30 03:26:04;;;;;;;19.73;7.45;;;;;;;13.93;100.00;101512.25;5054201;28;20031;-72
2022/10/30 03:28:30;;;;;;;18.48;7.55;;;;;;;13.94;100.00;101519.38;5053489;28;20021;-72
2022/10/30 03:31:05;;;;;;;16.10;7.72;;;;;;;13.90;100.00;101511.91;5053417;28;20167;-72
2022/10/30 03:33:31;;;;;;;18.50;7.13;;;;;;;13.90;100.00;101523.59;5053333;28;20100;-72
2022/10/30 03:35:57;;;;;;;23.23;7.68;;;;;;;13.92;100.00;101520.66;5052803;28;20037;-72
2022/10/30 03:38:22;;;;;;;18.75;7.82;;;;;;;13.89;100.00;101515.66;5053384;28;20459;-72
2022/10/30 03:40:48;;;;;;;16.50;7.38;;;;;;;13.91;100.00;101519.81;5053579;28;20044;-72
2022/10/30 03:43:13;;;;;;;18.85;7.43;;;;;;;13.93;100.00;101509.53;5052179;28;20025;-72
2022/10/30 03:45:38;;;;;;;19.15;7.43;;;;;;;13.93;100.00;101514.97;5053176;28;20032;-71
2022/10/30 03:48:05;;;;;;;19.80;7.18;;;;;;;13.91;100.00;101519.00;5053358;28;20028;-72
2022/10/30 03:50:31;;;;;;;18.02;7.50;;;;;;;13.90;100.00;101523.59;5051829;28;20449;-72
2022/10/30 03:52:57;;;;;;;19.80;7.05;;;;;;;13.92;100.00;101531.53;5053050;28;20064;-72
2022/10/30 03:55:23;;;;;;;17.98;7.13;;;;;;;13.86;100.00;101519.69;5065364;28;20103;-72
2022/10/30 03:57:49;;;;;;;15.98;7.13;;;;;;;13.83;100.00;101523.69;5073232;28;20021;-72
2022/10/30 04:00:16;;;;;;;21.08;8.35;;;;;;;13.80;100.00;101523.34;5054815;28;20037;-72
2022/10/30 04:02:46;;;;;;;23.55;7.65;;;;;;;13.82;100.00;101530.19;5082910;28;20028;-72
2022/10/30 04:05:15;;;;;;;18.50;7.30;;;;;;;13.81;100.00;101530.44;5053158;28;20031;-72
2022/10/30 04:07:41;;;;;;;17.38;7.63;;;;;;;13.78;100.00;101528.16;5052613;28;20079;-72
2022/10/30 04:10:06;;;;;;;13.57;6.88;;;;;;;13.73;100.00;101541.63;5052990;28;20032;-72
2022/10/30 04:12:32;;;;;;;15.68;7.13;;;;;;;13.70;100.00;101537.47;5052238;28;20028;-72
2022/10/30 04:14:57;;;;;;;20.75;8.13;;;;;;;13.70;100.00;101536.66;5056607;28;20063;-72
2022/10/30 04:17:22;;;;;;;16.52;7.25;;;;;;;13.68;100.00;101531.44;5073016;28;20029;-72
2022/10/30 04:19:47;;;;;;;19.60;7.68;;;;;;;13.69;100.00;101526.81;5072726;28;20521;-72
2022/10/30 04:22:13;;;;;;;16.02;7.30;;;;;;;13.63;100.00;101523.13;5072898;28;20115;-72
2022/10/30 04:24:38;;;;;;;16.10;7.20;;;;;;;13.61;100.00;101526.06;5072651;28;20016;-72
2022/10/30 04:27:04;;;;;;;13.48;7.00;;;;;;;13.58;100.00;101523.00;5072837;28;20024;-72
2022/10/30 04:29:29;;;;;;;15.15;7.40;;;;;;;13.52;100.00;101527.44;5068442;28;20024;-72
2022/10/30 04:31:54;;;;;;;17.23;7.68;;;;;;;13.54;100.00;101530.78;5071391;28;20062;-72
2022/10/30 04:34:20;;;;;;;13.35;7.18;;;;;;;13.56;100.00;101527.84;5055630;28;20021;-72
2022/10/30 04:36:45;;;;;;;13.95;7.18;;;;;;;13.58;100.00;101529.25;5052137;28;20076;-72
2022/10/30 04:39:10;;;;;;;15.35;7.95;;;;;;;13.58;100.00;101518.38;5051286;28;20025;-72
2022/10/30 04:41:36;;;;;;;17.60;7.90;;;;;;;13.56;100.00;101512.34;5052151;28;20029;-72
2022/10/30 04:44:01;;;;;;;17.20;7.70;;;;;;;13.59;100.00;101519.22;5052872;28;20035;-72
2022/10/30 04:46:26;;;;;;;14.70;7.45;;;;;;;13.59;100.00;101516.50;5068384;28;20056;-71
2022/10/30 04:48:52;;;;;;;15.35;7.70;;;;;;;13.54;100.00;101506.31;5054856;28;20032;-71
2022/10/30 04:51:17;;;;;;;14.38;7.50;;;;;;;13.51;100.00;101493.16;5052376;28;20025;-72
2022/10/30 04:53:42;;;;;;;20.35;8.02;;;;;;;13.56;100.00;101492.50;5052382;28;20029;-72
2022/10/30 04:56:07;;;;;;;14.75;7.68;;;;;;;13.56;100.00;101485.16;5051148;28;20024;-72
2022/10/30 04:58:33;;;;;;;18.70;8.07;;;;;;;13.59;100.00;101492.03;5052529;28;20024;-72
2022/10/30 05:01:02;;;;;;;17.60;7.50;;;;;;;13.54;100.00;101487.28;5049591;28;20029;-72
2022/10/30 05:03:27;;;;;;;14.60;7.65;;;;;;;13.57;100.00;101494.97;5052508;28;20033;-72
2022/10/30 05:05:59;;;;;;;19.38;7.63;;;;;;;13.56;100.00;101485.16;5052360;28;20029;-72
2022/10/30 05:08:25;;;;;;;19.33;7.60;;;;;;;13.59;100.00;101492.84;5051955;28;20078;-72
2022/10/30 05:10:51;;;;;;;17.15;8.15;;;;;;;13.58;100.00;101498.53;5052102;28;20021;-72
2022/10/30 05:13:16;;;;;;;14.82;7.40;;;;;;;13.57;100.00;101497.69;5051019;28;20032;-72
2022/10/30 05:15:41;;;;;;;19.38;7.70;;;;;;;13.55;100.00;101488.94;5051714;28;20057;-72
2022/10/30 05:18:07;;;;;;;19.00;7.82;;;;;;;13.57;100.00;101492.25;5084261;28;20025;-72
2022/10/30 05:20:32;;;;;;;19.98;8.15;;;;;;;13.56;100.00;101497.94;5055268;28;20104;-72
2022/10/30 05:22:58;;;;;;;18.00;7.75;;;;;;;13.52;100.00;101500.25;5055792;28;20484;-72
2022/10/30 05:25:24;;;;;;;20.27;7.90;;;;;;;13.48;100.00;101499.03;5056139;28;20047;-72
2022/10/30 05:27:50;;;;;;;18.50;7.15;;;;;;;13.47;100.00;101497.41;5062161;28;20455;-72
2022/10/30 05:30:15;;;;;;;20.42;7.82;;;;;;;13.40;100.00;101502.09;5062179;28;20028;-72
2022/10/30 05:32:41;;;;;;;19.10;7.82;;;;;;;13.33;100.00;101512.16;5055257;28;20031;-72
2022/10/30 05:35:06;;;;;;;19.80;7.97;;;;;;;13.28;100.00;101515.56;5056198;28;20076;-71
2022/10/30 05:37:31;;;;;;;18.10;7.68;;;;;;;13.28;100.00;101519.13;5055664;28;20027;-72
2022/10/30 05:39:57;;;;;;;15.82;7.45;;;;;;;13.28;100.00;101513.69;5055667;28;20029;-72
2022/10/30 05:42:22;;;;;;;15.05;6.90;;;;;;;13.22;100.00;101511.88;5056061;28;20420;-72
2022/10/30 05:44:47;;;;;;;20.10;7.85;;;;;;;13.19;100.00;101506.88;5054973;28;20033;-71
2022/10/30 05:47:13;;;;;;;19.52;7.15;;;;;;;13.16;100.00;101506.53;5055172;28;20108;-72
2022/10/30 05:49:38;;;;;;;17.45;7.72;;;;;;;13.10;100.00;101508.25;5055385;28;20053;-72
2022/10/30 05:52:03;;;;;;;18.55;7.82;;;;;;;13.07;100.00;101506.84;5055352;28;20021;-72
2022/10/30 05:54:29;;;;;;;17.75;7.32;;;;;;;13.04;100.00;101503.72;5055949;28;20100;-72
2022/10/30 05:56:56;;;;;;;16.25;7.53;;;;;;;12.98;100.00;101502.72;5055353;28;20056;-72
2022/10/30 05:59:21;;;;;;;14.43;7.03;;;;;;;12.92;100.00;101506.34;5055805;28;20032;-72
2022/10/30 06:01:46;;;;;;;16.25;6.90;;;;;;;12.87;100.00;101504.31;5053498;28;20431;-72
2022/10/30 06:04:11;;;;;;;13.75;7.00;;;;;;;12.90;100.00;101505.75;5055209;28;20112;-72
2022/10/30 06:06:37;;;;;;;20.75;7.50;;;;;;;12.86;100.00;101507.25;5054489;28;20033;-71
2022/10/30 06:09:02;;;;;;;16.30;7.50;;;;;;;12.82;100.00;101501.44;5055291;28;20021;-72
2022/10/30 06:11:27;;;;;;;16.00;7.43;;;;;;;12.80;100.00;101508.97;5055342;28;20037;-72
2022/10/30 06:13:53;;;;;;;15.00;7.20;;;;;;;12.73;100.00;101505.50;5055165;28;20051;-72
2022/10/30 06:16:18;;;;;;;13.90;7.32;;;;;;;12.72;100.00;101503.81;5054938;28;20479;-72
2022/10/30 06:18:43;;;;;;;16.98;7.45;;;;;;;12.65;100.00;101508.47;5053437;28;20074;-72
2022/10/30 06:21:08;;;;;;;13.63;7.40;;;;;;;12.62;100.00;101511.66;5055022;28;20158;-72
2022/10/30 06:23:34;;;;;;;14.77;7.88;;;;;;;12.59;100.00;101511.03;5055184;28;20479;-72
2022/10/30 06:25:59;;;;;;;15.15;7.45;;;;;;;12.61;100.00;101499.16;5066121;28;20032;-72
2022/10/30 06:28:24;;;;;;;20.15;7.40;;;;;;;12.61;100.00;101499.97;5073556;28;20025;-72
2022/10/30 06:30:49;;;;;;;16.70;7.75;;;;;;;12.56;100.00;101500.63;5076784;28;20032;-72
2022/10/30 06:33:15;;;;;;;16.17;7.45;;;;;;;12.53;100.00;101498.38;5073798;28;20395;-72
2022/10/30 06:35:40;;;;;;;20.67;8.07;;;;;;;12.55;100.00;101506.28;5054549;28;20013;-72
2022/10/30 06:38:07;;;;;;;19.25;8.25;;;;;;;12.52;100.00;101509.44;5070171;28;20021;-72
2022/10/30 06:40:32;;;;;;;19.20;7.82;;;;;;;12.47;100.00;101506.53;5053518;28;20032;-72
2022/10/30 06:42:58;;;;;;;17.98;7.70;;;;;;;12.50;100.00;101498.81;5053392;28;20035;-72
2022/10/30 06:45:23;;;;;;;16.92;7.95;;;;;;;12.51;100.00;101505.88;5061288;28;20024;-72
2022/10/30 06:47:49;;;;;;;14.00;7.70;;;;;;;12.47;100.00;101510.13;5072842;28;20070;-71
2022/10/30 06:50:18;;;;;;;19.77;8.23;;;;;;;12.48;100.00;101506.31;5054879;28;20090;-72
2022/10/30 06:52:44;;;;;;;19.63;7.78;;;;;;;12.47;100.00;101507.41;5052972;28;20028;-72
2022/10/30 06:55:10;;;;;;;19.65;7.95;;;;;;;12.45;100.00;101495.09;5054499;28;20070;-73
2022/10/30 06:57:35;;;;;;;16.35;7.93;;;;;;;12.42;100.00;101485.50;5054198;28;20108;-73
2022/10/30 07:00:01;;;;;;;16.98;7.50;;;;;;;12.45;100.00;101489.66;5054647;28;20056;-72
2022/10/30 07:02:27;;;;;;;15.57;7.75;;;;;;;12.44;100.00;101488.84;5051698;28;20420;-73
2022/10/30 07:04:52;;;;;;;15.38;7.85;;;;;;;12.50;100.00;101476.25;5053399;28;20476;-72
2022/10/30 07:07:17;;;;;;;18.83;7.95;;;;;;;12.47;100.00;101477.53;5052965;28;20032;-73
2022/10/30 07:09:45;;;;;;;17.38;8.25;;;;;;;12.50;100.00;101485.22;5053923;28;20356;-72
2022/10/30 07:12:10;;;;;;;14.10;8.13;;;;;;;12.58;100.00;101484.94;5054705;28;20415;-73
2022/10/30 07:14:36;;;;;;;18.02;8.07;;;;;;;12.62;100.00;101487.22;5059536;28;20085;-73
2022/10/30 07:17:01;;;;;;;14.70;8.00;;;;;;;12.62;100.00;101487.22;5072745;28;20021;-73
2022/10/30 07:19:26;;;;;;;19.52;8.68;;;;;;;12.67;100.00;101487.38;5072711;28;20028;-73
2022/10/30 07:21:52;;;;;;;16.35;8.38;;;;;;;12.67;100.00;101490.09;5072188;28;20063;-72
2022/10/30 07:24:17;;;;;;;20.83;8.10;;;;;;;12.66;100.00;101483.00;5074039;28;20020;-72
2022/10/30 07:26:43;;;;;;;20.33;8.20;;;;;;;12.67;100.00;101487.38;5073693;28;20020;-73
2022/10/30 07:29:08;;;;;;;15.38;7.47;;;;;;;12.72;100.00;101484.81;5067642;28;20078;-73
2022/10/30 07:31:33;;;;;;;21.15;8.38;;;;;;;12.80;100.00;101487.22;5053778;28;20043;-72
2022/10/30 07:33:59;;;;;;;17.00;8.00;;;;;;;12.82;100.00;101484.28;5052942;28;20043;-73
2022/10/30 07:36:24;;;;;;;15.10;7.85;;;;;;;12.87;100.00;101493.44;5053669;28;20416;-73
2022/10/30 07:38:51;;;;;;;23.52;8.07;;;;;;;12.91;100.00;101502.81;5053123;28;20019;-73
2022/10/30 07:41:17;;;;;;;14.82;7.10;;;;;;;12.96;100.00;101499.41;5053250;28;20048;-72
2022/10/30 07:43:43;;;;;;;19.50;8.45;;;;;;;12.98;100.00;101489.13;5052709;28;20029;-72
2022/10/30 07:46:08;;;;;;;19.73;8.43;;;;;;;13.02;100.00;101486.81;5065061;28;20028;-72
2022/10/30 07:48:34;;;;;;;17.63;8.50;;;;;;;13.05;100.00;101481.75;5073365;28;20031;-72
2022/10/30 07:50:59;;;;;;;19.05;8.75;;;;;;;13.13;100.00;101486.06;5071781;28;20082;-72
2022/10/30 07:53:24;;;;;;;17.23;8.77;;;;;;;13.17;100.00;101483.72;5066390;28;20021;-72
2022/10/30 07:55:49;;;;;;;19.02;8.05;;;;;;;13.19;100.00;101487.88;5068777;28;20051;-72
2022/10/30 07:58:15;;;;;;;18.67;8.40;;;;;;;13.25;100.00;101486.94;5073080;28;20013;-72
2022/10/30 08:00:40;;;;;;;19.35;8.70;;;;;;;13.26;100.00;101493.25;5064324;28;20574;-72
2022/10/30 08:03:05;;;;;;;17.27;7.85;;;;;;;13.35;100.00;101491.09;5053257;28;20025;-73
2022/10/30 08:05:31;;;;;;;19.35;8.40;;;;;;;13.36;100.00;101490.84;5052708;28;20021;-72
2022/10/30 08:07:56;;;;;;;16.38;8.43;;;;;;;13.37;100.00;101486.22;5052537;28;20032;-73
2022/10/30 08:10:22;;;;;;;29.02;9.15;;;;;;;13.43;100.00;101488.03;5053081;28;20025;-72
2022/10/30 08:12:47;;;;;;;17.30;7.78;;;;;;;13.52;100.00;101483.94;5052365;28;20106;-73
2022/10/30 08:15:13;;;;;;;17.52;7.65;;;;;;;13.54;100.00;101479.13;5058160;28;20341;-72
2022/10/30 08:17:43;;;;;;;24.48;7.68;;;;;;;13.59;100.00;101481.97;5072926;28;20024;-72
2022/10/30 08:20:11;;;;;;;18.83;8.23;;;;;;;13.64;100.00;101476.66;5058475;28;20029;-72
2022/10/30 08:22:53;;;;;;;20.55;8.27;;;;;;;13.69;100.00;101475.16;5060067;28;20399;-73
2022/10/30 08:25:21;;;;;;;21.40;7.95;;;;;;;13.73;100.00;101479.91;5057172;28;20109;-71
2022/10/30 08:27:52;;;;;;;21.70;8.18;;;;;;;13.80;100.00;101485.25;5072290;28;20025;-71
2022/10/30 08:30:18;;;;;;;14.40;7.60;;;;;;;13.86;100.00;101506.09;5088329;28;20038;-71
2022/10/30 08:32:43;;;;;;;21.05;8.02;;;;;;;13.90;100.00;101501.84;5070409;28;20266;-72
2022/10/30 08:35:08;;;;;;;15.43;8.23;;;;;;;13.98;100.00;101498.81;5069883;28;20409;-72
2022/10/30 08:37:34;;;;;;;15.95;7.60;;;;;;;13.99;100.00;101489.59;5072735;28;20028;-75
2022/10/30 08:39:59;;;;;;;17.90;7.55;;;;;;;14.05;100.00;101484.25;5061028;28;20399;-72
2022/10/30 08:42:24;;;;;;;15.45;7.68;;;;;;;14.10;100.00;101476.22;5052303;28;20357;-73
2022/10/30 08:44:49;;;;;;;17.45;7.28;;;;;;;14.12;100.00;101491.25;5052294;28;20056;-72
2022/10/30 08:47:15;;;;;;;17.65;7.78;;;;;;;14.17;100.00;101490.56;5053524;28;20029;-75
2022/10/30 08:49:40;;;;;;;21.38;7.47;;;;;;;14.22;100.00;101496.16;5063190;28;20021;-72
2022/10/30 08:52:09;;;;;;;15.07;7.15;;;;;;;14.30;100.00;101495.78;5051172;28;20070;-73
2022/10/30 08:54:34;;;;;;;18.88;7.40;;;;;;;14.32;100.00;101493.66;5054270;28;20035;-77
2022/10/30 08:56:59;;;;;;;17.42;7.10;;;;;;;14.40;100.00;101499.84;5067270;28;20033;-72
2022/10/30 08:59:25;;;;;;;15.80;6.80;;;;;;;14.45;100.00;101492.63;5070205;28;20353;-71
2022/10/30 09:01:50;;;;;;;21.20;7.85;;;;;;;14.52;100.00;101492.50;5052786;28;20403;-77
2022/10/30 09:04:15;;;;;;;18.33;7.47;;;;;;;14.59;100.00;101487.78;5059953;28;20479;-72
2022/10/30 09:06:41;;;;;;;17.40;6.97;;;;;;;14.66;100.00;101483.06;5051910;28;20025;-72
2022/10/30 09:09:06;;;;;;;17.95;7.50;;;;;;;14.74;100.00;101486.53;5037074;28;20033;-73
2022/10/30 09:11:31;;;;;;;19.48;9.15;;;;;;;14.82;100.00;101480.69;5044065;28;20450;-73
2022/10/30 09:13:56;;;;;;;18.50;7.30;;;;;;;14.89;100.00;101474.06;5071648;28;20028;-77
2022/10/30 09:16:22;;;;;;;13.57;7.07;;;;;;;14.96;100.00;101471.22;5053992;28;20032;-73
2022/10/30 09:18:47;;;;;;;17.02;6.68;;;;;;;15.04;100.00;101470.84;5035215;28;20048;-74
2022/10/30 09:21:12;;;;;;;19.27;7.25;;;;;;;15.14;100.00;101467.50;5051559;28;20037;-73
2022/10/30 09:23:38;;;;;;;20.30;7.47;;;;;;;15.23;100.00;101467.94;5049521;28;20029;-73
2022/10/30 09:26:03;;;;;;;17.75;6.57;;;;;;;15.27;100.00;101465.59;5039311;28;20036;-72
2022/10/30 09:28:31;;;;;;;14.30;6.30;;;;;;;15.30;100.00;101474.09;5031541;28;20369;-72
2022/10/30 09:30:56;;;;;;;20.45;7.45;;;;;;;15.35;100.00;101462.47;5031613;28;20026;-75
2022/10/30 09:33:22;;;;;;;20.35;6.88;;;;;;;15.43;100.00;101473.00;5035110;28;20017;-73
2022/10/30 09:35:47;;;;;;;18.75;6.85;;;;;;;15.48;100.00;101472.28;5043753;28;20028;-72
2022/10/30 09:38:12;;;;;;;19.02;7.68;;;;;;;15.53;100.00;101475.09;5051173;28;20159;-73
2022/10/30 09:40:51;;;;;;;14.77;6.80;;;;;;;15.60;100.00;101475.78;5051852;28;20029;-76
2022/10/30 09:43:44;;;;;;;18.52;6.35;;;;;;;15.64;100.00;101479.69;5050771;28;20033;-76
2022/10/30 09:46:27;;;;;;;16.33;7.05;;;;;;;15.69;100.00;101484.41;5052058;28;20052;-75
2022/10/30 09:48:55;;;;;;;20.38;6.47;;;;;;;15.67;100.00;101497.44;5041782;28;20107;-74
2022/10/30 09:51:33;;;;;;;17.10;6.30;;;;;;;15.71;100.00;101502.19;5031678;28;20025;-72
2022/10/30 09:54:19;;;;;;;18.48;6.60;;;;;;;15.73;100.00;101508.22;5031379;28;20045;-73
2022/10/30 09:56:49;;;;;;;17.52;6.72;;;;;;;15.74;100.00;101515.34;5032690;28;20392;-75
2022/10/30 09:59:41;;;;;;;18.45;6.57;;;;;;;15.76;100.00;101513.22;5049065;28;20395;-72
2022/10/30 10:02:30;;;;;;;20.10;6.65;;;;;;;15.76;100.00;101512.34;5047692;28;20041;-75
2022/10/30 10:05:25;;;;;;;16.85;6.53;;;;;;;15.77;100.00;101509.41;5050340;28;20028;-75
2022/10/30 10:07:59;;;;;;;19.40;6.60;;;;;;;15.79;100.00;101511.91;5055143;28;20094;-73
2022/10/30 10:10:38;;;;;;;18.33;6.60;;;;;;;15.83;100.00;101504.88;5054585;28;20089;-72
2022/10/30 10:13:06;;;;;;;17.70;6.45;;;;;;;15.83;100.00;101495.88;5054776;28;20609;-73
2022/10/30 10:15:52;;;;;;;15.95;6.50;;;;;;;15.91;100.00;101493.59;5054837;28;20456;-73
2022/10/30 10:18:24;;;;;;;16.63;6.55;;;;;;;15.97;100.00;101502.69;5046206;28;20056;-72
2022/10/30 10:20:54;;;;;;;16.35;6.63;;;;;;;16.00;100.00;101496.72;5034712;28;20032;-73
2022/10/30 10:23:34;;;;;;;16.63;6.53;;;;;;;16.02;100.00;101496.47;5039002;28;20021;-72
2022/10/30 10:26:15;;;;;;;16.98;6.35;;;;;;;16.05;100.00;101499.56;5039070;28;20026;-74
2022/10/30 10:28:58;;;;;;;16.98;6.03;;;;;;;16.10;100.00;101486.00;5045179;28;20032;-73
2022/10/30 10:31:58;;;;;;;11.68;5.72;;;;;;;16.15;100.00;101481.72;5055071;28;20055;-73
2022/10/30 10:34:29;;;;;;;19.92;6.35;;;;;;;16.20;100.00;101492.69;5041585;28;20505;-73
2022/10/30 10:37:15;;;;;;;15.77;6.20;;;;;;;16.27;100.00;101490.66;5033432;28;20032;-73
2022/10/30 10:40:15;;;;;;;14.60;5.93;;;;;;;16.29;100.00;101483.88;5043321;28;20025;-74
2022/10/30 10:43:05;;;;;;;15.15;6.22;;;;;;;16.39;100.00;101477.72;5053457;28;20039;-77
2022/10/30 10:46:09;;;;;;;18.73;6.80;;;;;;;16.44;100.00;101468.78;5054587;28;20086;-74
2022/10/30 10:48:44;;;;;;;17.23;6.00;;;;;;;16.51;100.00;101480.38;5053435;28;20406;-74
2022/10/30 10:51:43;;;;;;;19.10;6.20;;;;;;;16.57;100.00;101481.28;5054644;28;20104;-76
2022/10/30 10:54:09;;;;;;;19.95;6.15;;;;;;;16.63;100.00;101477.56;5051610;28;20041;-75
2022/10/30 10:56:39;;;;;;;18.83;5.90;;;;;;;16.67;100.00;101478.72;5053279;28;20025;-79
2022/10/30 10:59:29;;;;;;;21.95;6.22;;;;;;;16.73;100.00;101496.03;5058837;28;20020;-75
2022/10/30 11:02:21;;;;;;;15.20;6.28;;;;;;;16.78;100.00;101496.09;5047387;28;20372;-72
2022/10/30 11:04:51;;;;;;;22.63;6.03;;;;;;;16.85;100.00;101483.09;5053018;28;20060;-73
2022/10/30 11:07:23;;;;;;;15.65;5.80;;;;;;;16.93;100.00;101481.84;5054301;28;20029;-72
2022/10/30 11:09:58;;;;;;;13.88;5.78;;;;;;;16.95;100.00;101472.31;5052558;28;20032;-73
2022/10/30 11:12:27;;;;;;;14.25;6.20;;;;;;;16.96;100.00;101473.97;5054040;28;20024;-74
2022/10/30 11:14:52;;;;;;;18.90;6.53;;;;;;;17.02;100.00;101472.13;5051619;28;20032;-74
2022/10/30 11:17:38;;;;;;;14.00;5.78;;;;;;;17.04;100.00;101467.22;5050537;28;20033;-74